createdAt,value
2023-05-01T00:01:06.374Z,100281.56
2023-05-01T00:03:33.498Z,100277.25
2023-05-01T00:06:02.144Z,100274.63
2023-05-01T00:08:28.899Z,100272.88
2023-05-01T00:10:55.980Z,100281.56
2023-05-01T00:13:24.360Z,100278.97
2023-05-01T00:15:51.809Z,100278.97
2023-05-01T00:18:18.466Z,100268.59
2023-05-01T00:20:44.997Z,100274.66
2023-05-01T00:23:12.493Z,100259.06
2023-05-01T00:25:39.506Z,100262.50
2023-05-01T00:28:06.514Z,100258.19
2023-05-01T00:30:34.029Z,100252.16
2023-05-01T00:33:01.912Z,100246.97
2023-05-01T00:35:30.028Z,100247.00
2023-05-01T00:37:56.679Z,100241.81
2023-05-01T00:40:23.339Z,100234.94
2023-05-01T00:42:49.874Z,100227.16
2023-05-01T00:45:16.416Z,100225.47
2023-05-01T00:47:43.061Z,100226.38
2023-05-01T00:50:10.489Z,100224.69
2023-05-01T00:52:37.382Z,100215.22
2023-05-01T00:55:05.491Z,100208.31
2023-05-01T00:57:32.646Z,100210.97
2023-05-01T00:59:59.322Z,100215.31
2023-05-01T01:02:27.358Z,100212.72
2023-05-01T01:04:54.433Z,100218.81
2023-05-01T01:07:36.295Z,100211.09
2023-05-01T01:13:14.356Z,100196.44
2023-05-01T01:18:30.951Z,100205.97
2023-05-01T01:21:15.320Z,100193.91
2023-05-01T01:32:15.090Z,100185.34
2023-05-01T01:34:49.438Z,100181.91
2023-05-01T01:40:01.560Z,100180.22
2023-05-01T01:42:36.254Z,100175.91
2023-05-01T01:45:10.752Z,100170.72
2023-05-01T01:47:41.724Z,100166.41
2023-05-01T01:50:11.351Z,100166.44
2023-05-01T01:52:41.769Z,100162.13
2023-05-01T01:55:11.994Z,100166.44
2023-05-01T01:57:40.526Z,100160.41
2023-05-01T02:00:11.181Z,100159.53
2023-05-01T02:02:39.965Z,100160.38
2023-05-01T02:05:08.902Z,100161.22
2023-05-01T02:07:39.648Z,100151.72
2023-05-01T02:10:09.701Z,100146.50
2023-05-01T02:12:36.673Z,100150.88
2023-05-01T02:15:05.865Z,100152.56
2023-05-01T02:17:33.523Z,100149.09
2023-05-01T02:20:01.366Z,100139.56
2023-05-01T02:22:29.511Z,100141.28
2023-05-01T02:24:58.841Z,100139.56
2023-05-01T02:27:32.612Z,100140.41
2023-05-01T02:29:59.330Z,100140.41
2023-05-01T02:32:26.554Z,100135.28
2023-05-01T02:34:53.201Z,100136.13
2023-05-01T02:37:20.679Z,100137.88
2023-05-01T02:39:47.397Z,100136.16
2023-05-01T02:42:16.598Z,100142.22
2023-05-01T02:44:53.879Z,100142.25
2023-05-01T02:47:23.353Z,100147.44
2023-05-01T02:49:51.753Z,100142.28
2023-05-01T02:52:19.822Z,100141.44
2023-05-01T02:54:47.197Z,100146.63
2023-05-01T02:57:14.183Z,100144.94
2023-05-01T02:59:41.145Z,100139.75
2023-05-01T03:02:07.788Z,100138.88
2023-05-01T03:04:34.443Z,100144.94
2023-05-01T03:07:01.495Z,100140.63
2023-05-01T03:09:28.076Z,100137.16
2023-05-01T03:11:54.592Z,100134.56
2023-05-01T03:14:21.114Z,100132.84
2023-05-01T03:16:47.747Z,100129.38
2023-05-01T03:19:14.406Z,100132.84
2023-05-01T03:21:40.964Z,100134.56
2023-05-01T03:24:08.056Z,100127.69
2023-05-01T03:26:34.655Z,100125.97
2023-05-01T03:29:01.261Z,100122.50
2023-05-01T03:31:27.911Z,100119.06
2023-05-01T03:33:54.592Z,100120.75
2023-05-01T03:36:22.453Z,100121.59
2023-05-01T03:38:49.035Z,100119.91
2023-05-01T03:41:15.673Z,100113.88
2023-05-01T03:43:42.315Z,100117.34
2023-05-01T03:46:08.977Z,100119.94
2023-05-01T03:48:36.063Z,100121.66
2023-05-01T03:51:02.668Z,100123.44
2023-05-01T03:53:29.220Z,100123.44
2023-05-01T03:55:55.764Z,100120.84
2023-05-01T03:58:23.166Z,100117.38
2023-05-01T04:00:51.005Z,100121.69
2023-05-01T04:03:17.876Z,100122.53
2023-05-01T04:05:44.704Z,100128.59
2023-05-01T04:08:11.330Z,100123.41
2023-05-01T04:10:37.855Z,100126.84
2023-05-01T04:13:05.205Z,100125.13
2023-05-01T04:15:31.802Z,100127.72
2023-05-01T04:17:58.599Z,100128.56
2023-05-01T04:20:25.241Z,100120.78
2023-05-01T04:22:52.056Z,100130.31
2023-05-01T04:25:18.599Z,100129.44
2023-05-01T04:27:45.163Z,100125.13
2023-05-01T04:30:11.702Z,100126.84
2023-05-01T04:32:38.396Z,100125.13
2023-05-01T04:35:05.244Z,100120.78
2023-05-01T04:37:31.781Z,100124.25
2023-05-01T04:39:58.449Z,100119.94
2023-05-01T04:42:31.778Z,100118.25
2023-05-01T04:45:01.597Z,100126.00
2023-05-01T04:47:28.940Z,100122.56
2023-05-01T04:49:55.636Z,100124.31
2023-05-01T04:52:22.844Z,100129.50
2023-05-01T04:54:49.920Z,100138.97
2023-05-01T04:57:16.827Z,100137.25
2023-05-01T04:59:43.375Z,100142.44
2023-05-01T05:02:10.137Z,100153.66
2023-05-01T05:04:36.938Z,100151.94
2023-05-01T05:07:03.533Z,100151.06
2023-05-01T05:09:30.083Z,100152.81
2023-05-01T05:11:56.598Z,100153.66
2023-05-01T05:14:23.136Z,100151.94
2023-05-01T05:16:50.032Z,100150.22
2023-05-01T05:19:16.735Z,100163.19
2023-05-01T05:21:43.337Z,100152.81
2023-05-01T05:24:09.992Z,100154.53
2023-05-01T05:26:36.728Z,100162.31
2023-05-01T05:29:03.308Z,100159.72
2023-05-01T05:31:30.052Z,100157.97
2023-05-01T05:33:56.635Z,100162.31
2023-05-01T05:36:23.259Z,100160.56
2023-05-01T05:38:49.839Z,100163.16
2023-05-01T05:41:17.665Z,100160.56
2023-05-01T05:43:44.223Z,100159.72
2023-05-01T05:46:11.653Z,100163.16
2023-05-01T05:48:38.255Z,100170.03
2023-05-01T05:51:04.957Z,100173.50
2023-05-01T05:53:31.697Z,100178.69
2023-05-01T05:55:58.260Z,100185.59
2023-05-01T05:58:24.855Z,100176.94
2023-05-01T06:00:53.220Z,100183.00
2023-05-01T06:03:20.054Z,100187.31
2023-05-01T06:05:47.170Z,100180.38
2023-05-01T06:08:14.650Z,100177.75
2023-05-01T06:10:43.712Z,100176.91
2023-05-01T06:13:13.883Z,100184.66
2023-05-01T06:15:41.671Z,100182.94
2023-05-01T06:18:08.800Z,100179.47
2023-05-01T06:20:36.127Z,100183.78
2023-05-01T06:23:03.532Z,100182.03
2023-05-01T06:25:30.189Z,100182.00
2023-05-01T06:27:56.803Z,100194.06
2023-05-01T06:30:23.349Z,100183.69
2023-05-01T06:32:50.347Z,100184.50
2023-05-01T06:35:17.050Z,100183.63
2023-05-01T06:37:43.703Z,100187.03
2023-05-01T06:40:10.885Z,100190.47
2023-05-01T06:42:38.798Z,100178.34
2023-05-01T06:45:07.056Z,100186.09
2023-05-01T06:47:33.916Z,100191.28
2023-05-01T06:50:02.874Z,100189.53
2023-05-01T06:52:31.169Z,100188.66
2023-05-01T06:54:58.076Z,100189.53
2023-05-01T06:57:24.643Z,100197.31
2023-05-01T06:59:51.203Z,100203.34
2023-05-01T07:02:17.852Z,100202.47
2023-05-01T07:04:45.311Z,100204.19
2023-05-01T07:07:12.180Z,100197.25
2023-05-01T07:09:38.807Z,100199.81
2023-05-01T07:12:06.152Z,100197.22
2023-05-01T07:14:34.537Z,100197.22
2023-05-01T07:17:01.925Z,100204.13
2023-05-01T07:19:28.887Z,100197.19
2023-05-01T07:21:55.646Z,100211.00
2023-05-01T07:24:22.171Z,100198.88
2023-05-01T07:26:48.728Z,100204.03
2023-05-01T07:29:16.524Z,100214.41
2023-05-01T07:31:43.834Z,100214.38
2023-05-01T07:34:10.587Z,100211.75
2023-05-01T07:36:37.683Z,100211.66
2023-05-01T07:39:04.614Z,100217.66
2023-05-01T07:41:31.750Z,100217.47
2023-05-01T07:43:59.919Z,100213.72
2023-05-01T07:46:27.202Z,100215.06
2023-05-01T07:48:53.975Z,100218.19
2023-05-01T07:51:20.798Z,100221.47
2023-05-01T07:53:48.730Z,100220.19
2023-05-01T07:56:16.205Z,100225.66
2023-05-01T07:58:43.991Z,100226.06
2023-05-01T08:01:11.071Z,100225.03
2023-05-01T08:03:37.993Z,100222.00
2023-05-01T08:06:05.776Z,100223.56
2023-05-01T08:08:32.508Z,100221.53
2023-05-01T08:10:59.146Z,100233.47
2023-05-01T08:13:25.903Z,100228.81
2023-05-01T08:15:53.111Z,100238.28
2023-05-01T08:18:21.221Z,100229.78
2023-05-01T08:20:48.706Z,100228.31
2023-05-01T08:23:16.789Z,100224.31
2023-05-01T08:25:43.622Z,100227.22
2023-05-01T08:28:10.423Z,100228.31
2023-05-01T08:30:36.990Z,100239.66
2023-05-01T08:33:03.805Z,100238.88
2023-05-01T08:35:30.422Z,100240.72
2023-05-01T08:37:58.085Z,100239.06
2023-05-01T08:40:26.417Z,100245.88
2023-05-01T08:42:55.073Z,100242.13
2023-05-01T08:45:24.774Z,100244.59
2023-05-01T08:47:54.153Z,100257.53
2023-05-01T08:50:22.802Z,100259.38
2023-05-01T08:52:51.798Z,100255.97
2023-05-01T08:55:21.187Z,100258.56
2023-05-01T08:57:48.706Z,100250.72
2023-05-01T09:00:19.526Z,100249.75
2023-05-01T09:02:48.629Z,100248.78
2023-05-01T09:05:17.708Z,100261.53
2023-05-01T09:07:46.266Z,100262.31
2023-05-01T09:10:15.433Z,100266.75
2023-05-01T09:12:44.968Z,100264.88
2023-05-01T09:15:12.409Z,100265.53
2023-05-01T09:17:40.425Z,100267.22
2023-05-01T09:20:07.849Z,100272.94
2023-05-01T09:22:35.509Z,100276.34
2023-05-01T09:25:03.825Z,100280.38
2023-05-01T09:27:35.232Z,100280.41
2023-05-01T09:30:01.972Z,100285.66
2023-05-01T09:32:28.892Z,100284.28
2023-05-01T09:35:08.962Z,100276.34
2023-05-01T09:37:35.610Z,100283.72
2023-05-01T09:40:12.004Z,100281.28
2023-05-01T09:45:19.033Z,100290.47
2023-05-01T09:47:46.975Z,100281.06
2023-05-01T09:50:32.429Z,100286.28
2023-05-01T09:53:01.626Z,100281.97
2023-05-01T09:55:28.197Z,100288.34
2023-05-01T09:57:54.774Z,100283.09
2023-05-01T10:00:22.313Z,100291.75
2023-05-01T10:02:50.075Z,100292.84
2023-05-01T10:05:18.357Z,100290.16
2023-05-01T10:08:02.440Z,100289.97
2023-05-01T10:10:29.688Z,100282.63
2023-05-01T10:12:56.545Z,100283.72
2023-05-01T10:15:26.685Z,100284.91
2023-05-01T10:17:54.700Z,100285.00
2023-05-01T10:20:21.993Z,100288.69
2023-05-01T10:22:49.267Z,100295.28
2023-05-01T10:25:17.903Z,100284.75
2023-05-01T10:27:44.833Z,100293.78
2023-05-01T10:30:11.645Z,100290.09
2023-05-01T10:32:41.059Z,100285.94
2023-05-01T10:35:12.935Z,100290.25
2023-05-01T10:37:47.289Z,100285.34
2023-05-01T10:48:54.607Z,100292.84
2023-05-01T10:51:25.714Z,100292.69
2023-05-01T10:56:51.171Z,100305.59
2023-05-01T10:59:17.831Z,100305.50
2023-05-01T11:01:45.822Z,100302.88
2023-05-01T11:09:42.439Z,100307.91
2023-05-01T11:12:11.414Z,100304.16
2023-05-01T11:17:46.103Z,100306.22
2023-05-01T11:23:17.396Z,100303.09
2023-05-01T11:25:46.441Z,100309.81
2023-05-01T11:28:19.678Z,100314.00
2023-05-01T11:30:46.649Z,100310.34
2023-05-01T11:33:14.471Z,100316.59
2023-05-01T11:35:41.605Z,100316.13
2023-05-01T11:38:18.930Z,100310.63
2023-05-01T11:40:46.088Z,100323.44
2023-05-01T11:43:12.780Z,100331.13
2023-05-01T11:45:39.565Z,100328.88
2023-05-01T11:48:15.296Z,100335.50
2023-05-01T11:50:41.987Z,100332.41
2023-05-01T11:53:15.708Z,100338.81
2023-05-01T11:55:42.322Z,100334.78
2023-05-01T11:58:09.326Z,100332.25
2023-05-01T12:00:38.327Z,100330.44
2023-05-01T12:03:07.880Z,100330.34
2023-05-01T12:05:37.354Z,100320.91
2023-05-01T12:08:23.157Z,100323.75
2023-05-01T12:10:52.744Z,100329.44
2023-05-01T12:13:19.923Z,100324.44
2023-05-01T12:15:48.508Z,100325.06
2023-05-01T12:18:16.317Z,100332.09
2023-05-01T12:20:48.762Z,100322.47
2023-05-01T12:23:16.359Z,100327.69
2023-05-01T12:25:44.938Z,100332.03
2023-05-01T12:28:15.739Z,100328.47
2023-05-01T12:30:43.504Z,100329.31
2023-05-01T12:35:50.731Z,100325.22
2023-05-01T12:38:19.231Z,100333.88
2023-05-01T12:40:58.577Z,100331.97
2023-05-01T12:43:34.603Z,100335.25
2023-05-01T12:46:02.140Z,100331.38
2023-05-01T12:48:30.086Z,100333.72
2023-05-01T12:50:57.289Z,100329.91
2023-05-01T12:53:26.173Z,100348.03
2023-05-01T12:55:55.580Z,100337.34
2023-05-01T12:58:23.060Z,100338.88
2023-05-01T13:00:53.092Z,100346.53
2023-05-01T13:03:26.227Z,100340.41
2023-05-01T13:05:56.438Z,100344.66
2023-05-01T13:08:29.350Z,100336.69
2023-05-01T13:10:57.545Z,100338.47
2023-05-01T13:13:26.924Z,100345.56
2023-05-01T13:15:53.852Z,100345.66
2023-05-01T13:18:20.606Z,100356.13
2023-05-01T13:20:47.191Z,100346.78
2023-05-01T13:23:13.930Z,100351.94
2023-05-01T13:25:40.696Z,100354.22
2023-05-01T13:28:07.925Z,100354.47
2023-05-01T13:30:34.894Z,100350.00
2023-05-01T13:33:02.024Z,100352.78
2023-05-01T13:35:28.684Z,100352.25
2023-05-01T13:37:55.419Z,100362.66
2023-05-01T13:40:26.076Z,100365.34
2023-05-01T13:42:53.931Z,100362.94
2023-05-01T13:45:21.886Z,100369.31
2023-05-01T13:47:51.985Z,100374.88
2023-05-01T13:50:18.896Z,100369.03
2023-05-01T13:52:46.069Z,100375.38
2023-05-01T13:55:13.731Z,100380.00
2023-05-01T13:57:42.426Z,100380.50
2023-05-01T14:00:14.287Z,100386.13
2023-05-01T14:02:47.686Z,100379.63
2023-05-01T14:05:15.978Z,100380.38
2023-05-01T14:07:53.534Z,100378.75
2023-05-01T14:10:21.735Z,100378.59
2023-05-01T14:12:48.273Z,100378.34
2023-05-01T14:15:15.117Z,100367.88
2023-05-01T14:17:41.891Z,100365.06
2023-05-01T14:20:08.920Z,100362.22
2023-05-01T14:22:44.070Z,100356.59
2023-05-01T14:28:08.301Z,100366.50
2023-05-01T14:30:38.475Z,100364.59
2023-05-01T14:33:11.283Z,100367.16
2023-05-01T14:35:47.814Z,100358.31
2023-05-01T14:38:16.651Z,100366.41
2023-05-01T14:40:44.641Z,100366.50
2023-05-01T14:43:16.324Z,100367.47
2023-05-01T14:45:43.785Z,100358.09
2023-05-01T14:48:11.750Z,100359.13
2023-05-01T14:50:38.945Z,100356.38
2023-05-01T14:53:06.517Z,100361.72
2023-05-01T14:55:34.816Z,100371.44
2023-05-01T14:58:02.057Z,100365.56
2023-05-01T15:00:28.600Z,100368.78
2023-05-01T15:02:56.481Z,100371.09
2023-05-01T15:05:24.713Z,100371.50
2023-05-01T15:07:51.448Z,100374.06
2023-05-01T15:10:18.090Z,100372.09
2023-05-01T15:12:44.701Z,100364.38
2023-05-01T15:15:11.579Z,100370.38
2023-05-01T15:17:38.386Z,100377.59
2023-05-01T15:20:06.472Z,100374.50
2023-05-01T15:22:33.073Z,100384.59
2023-05-01T15:24:59.901Z,100391.00
2023-05-01T15:27:27.567Z,100391.25
2023-05-01T15:29:54.183Z,100382.66
2023-05-01T15:32:20.984Z,100385.13
2023-05-01T15:34:47.678Z,100389.25
2023-05-01T15:37:14.228Z,100394.09
2023-05-01T15:39:40.784Z,100391.16
2023-05-01T15:42:07.356Z,100393.50
2023-05-01T15:44:33.902Z,100394.19
2023-05-01T15:47:00.466Z,100394.66
2023-05-01T15:49:27.087Z,100389.16
2023-05-01T15:51:54.569Z,100397.06
2023-05-01T15:54:21.568Z,100394.38
2023-05-01T15:56:48.109Z,100399.56
2023-05-01T15:59:14.758Z,100397.81
2023-05-01T16:01:41.466Z,100401.53
2023-05-01T16:04:08.276Z,100403.81
2023-05-01T16:06:35.602Z,100407.94
2023-05-01T16:09:02.818Z,100409.66
2023-05-01T16:11:30.497Z,100409.75
2023-05-01T16:13:57.243Z,100407.00
2023-05-01T16:16:26.543Z,100421.78
2023-05-01T16:18:55.901Z,100421.78
2023-05-01T16:21:24.064Z,100425.22
2023-05-01T16:23:53.022Z,100428.66
2023-05-01T16:26:23.042Z,100423.25
2023-05-01T16:28:50.064Z,100433.66
2023-05-01T16:31:27.091Z,100430.03
2023-05-01T16:33:54.794Z,100430.94
2023-05-01T16:36:21.505Z,100436.06
2023-05-01T16:38:48.335Z,100435.28
2023-05-01T16:41:16.558Z,100435.63
2023-05-01T16:43:44.085Z,100443.56
2023-05-01T16:46:11.290Z,100427.03
2023-05-01T16:48:39.023Z,100440.97
2023-05-01T16:51:06.595Z,100440.13
2023-05-01T16:53:33.249Z,100437.50
2023-05-01T16:55:59.960Z,100435.78
2023-05-01T16:58:27.626Z,100442.94
2023-05-01T17:00:55.812Z,100443.84
2023-05-01T17:03:22.431Z,100439.66
2023-05-01T17:05:48.958Z,100442.41
2023-05-01T17:08:15.712Z,100455.59
2023-05-01T17:10:43.764Z,100445.19
2023-05-01T17:13:10.994Z,100460.19
2023-05-01T17:15:37.491Z,100452.47
2023-05-01T17:18:04.311Z,100450.03
2023-05-01T17:20:31.489Z,100453.69
2023-05-01T17:22:58.023Z,100458.19
2023-05-01T17:25:24.652Z,100459.94
2023-05-01T17:27:51.233Z,100461.75
2023-05-01T17:30:18.506Z,100467.97
2023-05-01T17:32:45.284Z,100465.50
2023-05-01T17:35:11.922Z,100465.56
2023-05-01T17:37:39.977Z,100460.47
2023-05-01T17:40:08.984Z,100466.84
2023-05-01T17:42:36.965Z,100463.47
2023-05-01T17:45:07.308Z,100475.06
2023-05-01T17:47:34.467Z,100468.28
2023-05-01T17:50:04.495Z,100466.69
2023-05-01T17:52:31.258Z,100468.63
2023-05-01T17:54:57.886Z,100472.31
2023-05-01T17:57:24.471Z,100470.72
2023-05-01T17:59:51.049Z,100477.88
2023-05-01T18:02:17.807Z,100486.69
2023-05-01T18:04:44.469Z,100484.31
2023-05-01T18:07:11.192Z,100494.84
2023-05-01T18:09:37.770Z,100496.69
2023-05-01T18:12:04.663Z,100495.91
2023-05-01T18:14:31.325Z,100500.34
2023-05-01T18:16:58.023Z,100516.06
2023-05-01T18:19:24.645Z,100510.94
2023-05-01T18:21:51.307Z,100513.63
2023-05-01T18:24:17.875Z,100511.97
2023-05-01T18:26:44.432Z,100518.19
2023-05-01T18:29:10.963Z,100526.06
2023-05-01T18:31:38.328Z,100534.84
2023-05-01T18:34:06.526Z,100531.44
2023-05-01T18:36:33.350Z,100533.25
2023-05-01T18:39:01.871Z,100531.63
2023-05-01T18:41:28.461Z,100545.63
2023-05-01T18:43:57.834Z,100540.50
2023-05-01T18:46:24.856Z,100541.50
2023-05-01T18:48:51.460Z,100538.97
2023-05-01T18:51:18.168Z,100542.56
2023-05-01T18:53:44.767Z,100556.56
2023-05-01T18:56:11.444Z,100551.47
2023-05-01T18:58:39.840Z,100556.75
2023-05-01T19:01:06.841Z,100551.66
2023-05-01T19:03:33.537Z,100553.44
2023-05-01T19:06:00.167Z,100547.47
2023-05-01T19:08:27.023Z,100552.75
2023-05-01T19:10:53.533Z,100558.06
2023-05-01T19:13:20.204Z,100561.63
2023-05-01T19:15:46.791Z,100570.38
2023-05-01T19:18:13.419Z,100571.31
2023-05-01T19:20:40.074Z,100571.31
2023-05-01T19:23:06.700Z,100578.34
2023-05-01T19:25:34.259Z,100582.75
2023-05-01T19:28:02.126Z,100581.09
2023-05-01T19:30:28.801Z,100592.44
2023-05-01T19:32:55.550Z,100593.38
2023-05-01T19:35:22.103Z,100599.50
2023-05-01T19:37:54.223Z,100600.44
2023-05-01T19:40:20.898Z,100606.56
2023-05-01T19:42:47.626Z,100611.81
2023-05-01T19:45:17.075Z,100617.09
2023-05-01T19:47:44.456Z,100620.63
2023-05-01T19:50:11.626Z,100622.38
2023-05-01T19:52:38.214Z,100627.66
2023-05-01T19:55:05.509Z,100624.22
2023-05-01T19:57:32.232Z,100637.28
2023-05-01T19:59:59.204Z,100632.97
2023-05-01T20:02:26.016Z,100647.75
2023-05-01T20:04:52.652Z,100652.13
2023-05-01T20:07:19.248Z,100653.91
2023-05-01T20:09:46.035Z,100664.31
2023-05-01T20:12:12.702Z,100663.47
2023-05-01T20:14:39.239Z,100670.44
2023-05-01T20:17:07.396Z,100677.41
2023-05-01T20:19:34.141Z,100681.75
2023-05-01T20:22:00.831Z,100685.19
2023-05-01T20:24:27.382Z,100688.69
2023-05-01T20:26:55.802Z,100691.31
2023-05-01T20:29:22.549Z,100693.94
2023-05-01T20:31:49.774Z,100698.28
2023-05-01T20:34:16.292Z,100696.56
2023-05-01T20:36:43.267Z,100697.44
2023-05-01T20:39:09.895Z,100700.03
2023-05-01T20:41:36.663Z,100702.66
2023-05-01T20:44:03.724Z,100706.13
2023-05-01T20:46:30.478Z,100719.13
2023-05-01T20:48:57.178Z,100713.09
2023-05-01T20:51:23.748Z,100706.16
2023-05-01T20:53:50.544Z,100708.78
2023-05-01T20:56:17.399Z,100716.56
2023-05-01T20:58:44.142Z,100718.31
2023-05-01T21:01:11.192Z,100733.03
2023-05-01T21:03:38.373Z,100734.78
2023-05-01T21:06:05.027Z,100731.31
2023-05-01T21:08:33.278Z,100740.88
2023-05-01T21:11:01.801Z,100736.53
2023-05-01T21:13:28.556Z,100742.59
2023-05-01T21:15:55.327Z,100733.06
2023-05-01T21:18:22.184Z,100742.63
2023-05-01T21:20:48.944Z,100745.19
2023-05-01T21:23:17.451Z,100743.47
2023-05-01T21:25:44.446Z,100746.06
2023-05-01T21:28:12.703Z,100746.94
2023-05-01T21:30:39.777Z,100754.72
2023-05-01T21:33:11.625Z,100749.50
2023-05-01T21:35:41.877Z,100751.22
2023-05-01T21:38:08.846Z,100752.06
2023-05-01T21:40:37.663Z,100754.66
2023-05-01T21:43:05.865Z,100753.75
2023-05-01T21:45:34.369Z,100763.25
2023-05-01T21:48:01.040Z,100766.72
2023-05-01T21:50:29.359Z,100771.06
2023-05-01T21:52:55.990Z,100765.84
2023-05-01T21:55:26.037Z,100775.34
2023-05-01T21:57:53.406Z,100773.59
2023-05-01T22:00:21.043Z,100783.13
2023-05-01T22:02:49.719Z,100776.16
2023-05-01T22:05:19.858Z,100771.84
2023-05-01T22:07:47.042Z,100778.69
2023-05-01T22:10:15.806Z,100780.47
2023-05-01T22:12:43.118Z,100787.38
2023-05-01T22:15:11.264Z,100790.84
2023-05-01T22:17:38.759Z,100784.72
2023-05-01T22:20:07.237Z,100799.44
2023-05-01T22:22:36.252Z,100800.28
2023-05-01T22:25:03.986Z,100801.13
2023-05-01T22:27:31.219Z,100795.91
2023-05-01T22:29:57.866Z,100811.47
2023-05-01T22:32:24.848Z,100808.00
2023-05-01T22:34:51.491Z,100805.41
2023-05-01T22:37:19.595Z,100814.91
2023-05-01T22:39:46.467Z,100817.47
2023-05-01T22:42:13.159Z,100821.81
2023-05-01T22:44:39.832Z,100823.53
2023-05-01T22:47:07.097Z,100826.97
2023-05-01T22:49:33.677Z,100833.00
2023-05-01T22:52:00.268Z,100831.25
2023-05-01T22:54:26.880Z,100836.44
2023-05-01T22:56:53.532Z,100839.91
2023-05-01T22:59:21.746Z,100847.72
2023-05-01T23:01:48.702Z,100849.44
2023-05-01T23:04:15.857Z,100846.00
2023-05-01T23:06:43.345Z,100854.63
2023-05-01T23:09:10.031Z,100860.69
2023-05-01T23:11:36.758Z,100867.59
2023-05-01T23:14:03.396Z,100863.28
2023-05-01T23:16:36.593Z,100871.94
2023-05-01T23:19:03.664Z,100871.97
2023-05-01T23:21:31.217Z,100878.88
2023-05-01T23:23:57.778Z,100878.88
2023-05-01T23:26:26.616Z,100870.25
2023-05-01T23:28:53.640Z,100881.47
2023-05-01T23:31:26.276Z,100889.25
2023-05-01T23:33:53.460Z,100893.53
2023-05-01T23:36:20.207Z,100896.09
2023-05-01T23:38:47.382Z,100903.88
2023-05-01T23:41:15.065Z,100908.19
2023-05-01T23:43:42.081Z,100902.97
2023-05-01T23:46:09.172Z,100900.31
2023-05-01T23:48:36.290Z,100902.88
2023-05-01T23:51:03.380Z,100896.78
2023-05-01T23:53:30.189Z,100901.91
2023-05-01T23:55:56.946Z,100900.97
2023-05-01T23:58:24.278Z,100896.56
